createdAt,value
2019-02-28T00:01:57.116Z,35.49
2019-02-28T00:04:32.115Z,35.58
2019-02-28T00:06:58.176Z,35.55
2019-02-28T00:09:27.817Z,35.46
2019-02-28T00:11:57.496Z,35.53
2019-02-28T00:14:27.849Z,35.41
2019-02-28T00:16:57.969Z,35.43
2019-02-28T00:19:27.651Z,35.40
2019-02-28T00:21:57.392Z,35.42
2019-02-28T00:24:29.812Z,35.54
2019-02-28T00:26:58.448Z,35.47
2019-02-28T00:29:28.024Z,35.38
2019-02-28T00:31:57.782Z,35.40
2019-02-28T00:34:27.359Z,35.51
2019-02-28T00:36:57.168Z,35.48
2019-02-28T00:39:26.792Z,35.53
2019-02-28T00:41:56.435Z,35.50
2019-02-28T00:44:30.458Z,35.63
2019-02-28T00:46:57.442Z,35.63
2019-02-28T00:49:27.078Z,35.72
2019-02-28T00:51:56.868Z,35.73
2019-02-28T00:54:26.488Z,35.73
2019-02-28T00:56:56.212Z,35.86
2019-02-28T00:59:25.792Z,35.84
2019-02-28T01:01:55.419Z,35.86
2019-02-28T01:04:25.105Z,35.83
2019-02-28T01:06:54.737Z,35.88
2019-02-28T01:09:27.102Z,35.84
2019-02-28T01:11:55.888Z,35.79
2019-02-28T01:14:25.594Z,35.77
2019-02-28T01:16:55.207Z,35.90
2019-02-28T01:19:24.916Z,35.93
2019-02-28T01:21:55.378Z,35.98
2019-02-28T01:24:25.873Z,35.86
2019-02-28T01:26:55.575Z,35.97
2019-02-28T01:29:25.210Z,35.97
2019-02-28T01:31:54.891Z,35.88
2019-02-28T01:34:24.416Z,35.90
2019-02-28T01:36:54.173Z,35.88
2019-02-28T01:39:23.825Z,35.88
2019-02-28T01:41:53.568Z,35.89
2019-02-28T01:44:23.437Z,35.97
2019-02-28T01:46:53.520Z,35.99
2019-02-28T01:49:25.962Z,35.96
2019-02-28T01:51:54.954Z,35.89
2019-02-28T01:54:25.152Z,35.95
2019-02-28T01:56:56.163Z,35.96
2019-02-28T01:59:25.816Z,35.99
2019-02-28T02:01:55.522Z,36.06
2019-02-28T02:04:25.173Z,36.00
2019-02-28T02:06:59.677Z,35.99
2019-02-28T02:09:27.760Z,36.05
2019-02-28T02:11:59.044Z,36.00
2019-02-28T02:14:28.868Z,35.96
2019-02-28T02:17:01.097Z,35.87
2019-02-28T02:19:30.015Z,35.93
2019-02-28T02:21:59.662Z,36.05
2019-02-28T02:24:29.291Z,36.13
2019-02-28T02:26:58.990Z,36.09
2019-02-28T02:29:28.714Z,36.18
2019-02-28T02:32:01.152Z,36.17
2019-02-28T02:34:29.931Z,36.01
2019-02-28T02:36:59.681Z,36.20
2019-02-28T02:39:29.306Z,36.19
2019-02-28T02:41:58.991Z,36.21
2019-02-28T02:44:31.755Z,36.20
2019-02-28T02:47:00.161Z,36.21
2019-02-28T02:49:29.799Z,36.19
2019-02-28T02:51:59.469Z,36.21
2019-02-28T02:54:29.233Z,36.20
2019-02-28T02:56:58.810Z,36.22
2019-02-28T02:59:28.498Z,36.22
2019-02-28T03:01:58.121Z,36.08
2019-02-28T03:04:27.832Z,36.16
2019-02-28T03:06:57.433Z,36.12
2019-02-28T03:09:27.145Z,36.13
2019-02-28T03:11:57.716Z,36.18
2019-02-28T03:14:28.322Z,36.13
2019-02-28T03:16:57.913Z,36.25
2019-02-28T03:19:33.224Z,36.32
2019-02-28T03:21:58.992Z,36.27
2019-02-28T03:24:28.687Z,36.29
2019-02-28T03:26:58.500Z,36.23
2019-02-28T03:29:28.199Z,36.34
2019-02-28T03:31:59.639Z,36.24
2019-02-28T03:34:29.420Z,36.16
2019-02-28T03:36:59.100Z,36.21
2019-02-28T03:39:28.792Z,36.26
2019-02-28T03:41:58.397Z,36.37
2019-02-28T03:44:28.030Z,36.28
2019-02-28T03:46:57.719Z,36.21
2019-02-28T03:49:27.335Z,36.21
2019-02-28T03:51:57.047Z,36.23
2019-02-28T03:54:28.840Z,36.22
2019-02-28T03:56:58.102Z,36.27
2019-02-28T03:59:27.720Z,36.18
2019-02-28T04:01:57.428Z,36.14
2019-02-28T04:04:27.123Z,36.03
2019-02-28T04:06:56.810Z,36.34
2019-02-28T04:09:26.543Z,36.36
2019-02-28T04:11:56.057Z,36.35
2019-02-28T04:14:28.508Z,36.28
2019-02-28T04:16:57.255Z,36.37
2019-02-28T04:19:26.931Z,36.26
2019-02-28T04:21:56.570Z,36.32
2019-02-28T04:24:26.248Z,36.27
2019-02-28T04:26:55.934Z,36.27
2019-02-28T04:29:29.829Z,36.20
2019-02-28T04:31:58.062Z,36.22
2019-02-28T04:34:27.878Z,36.17
2019-02-28T04:36:57.670Z,36.17
2019-02-28T04:39:27.207Z,36.14
2019-02-28T04:41:56.819Z,36.18
2019-02-28T04:44:26.490Z,36.14
2019-02-28T04:46:56.223Z,36.12
2019-02-28T04:49:26.015Z,36.11
2019-02-28T04:51:55.798Z,36.16
2019-02-28T04:54:27.816Z,36.04
2019-02-28T04:56:56.895Z,36.04
2019-02-28T04:59:26.501Z,35.98
2019-02-28T05:01:56.238Z,36.08
2019-02-28T05:04:26.075Z,36.12
2019-02-28T05:06:55.918Z,35.91
2019-02-28T05:09:25.642Z,36.12
2019-02-28T05:11:55.475Z,36.03
2019-02-28T05:14:25.175Z,36.01
2019-02-28T05:16:54.883Z,36.09
2019-02-28T05:19:24.516Z,36.27
2019-02-28T05:21:56.237Z,36.20
2019-02-28T05:24:25.897Z,36.22
2019-02-28T05:26:57.334Z,36.30
2019-02-28T05:29:27.381Z,36.39
2019-02-28T05:31:58.134Z,36.37
2019-02-28T05:34:28.744Z,36.51
2019-02-28T05:36:58.579Z,36.59
2019-02-28T05:39:31.006Z,36.75
2019-02-28T05:41:59.888Z,36.89
2019-02-28T05:44:29.609Z,36.81
2019-02-28T05:46:59.399Z,36.89
2019-02-28T05:49:29.111Z,36.90
2019-02-28T05:51:59.784Z,36.76
2019-02-28T05:54:29.480Z,36.65
2019-02-28T05:56:59.293Z,36.78
2019-02-28T05:59:28.905Z,36.95
2019-02-28T06:01:58.589Z,37.02
2019-02-28T06:04:28.303Z,37.19
2019-02-28T06:06:58.015Z,37.59
2019-02-28T06:09:27.763Z,37.94
2019-02-28T06:11:57.356Z,37.99
2019-02-28T06:14:27.791Z,38.05
2019-02-28T06:16:57.499Z,37.72
2019-02-28T06:19:27.095Z,37.60
2019-02-28T06:21:59.477Z,37.92
2019-02-28T06:24:28.174Z,38.08
2019-02-28T06:26:57.852Z,38.05
2019-02-28T06:29:27.556Z,37.78
2019-02-28T06:31:57.214Z,38.06
2019-02-28T06:34:26.882Z,37.27
2019-02-28T06:36:56.565Z,34.50
2019-02-28T06:39:27.577Z,32.90
2019-02-28T06:41:57.473Z,32.80
2019-02-28T06:44:27.757Z,33.10
2019-02-28T06:46:57.413Z,35.45
2019-02-28T06:49:26.997Z,34.44
2019-02-28T06:51:56.742Z,34.51
2019-02-28T06:54:26.349Z,33.59
2019-02-28T06:56:55.934Z,33.30
2019-02-28T06:59:25.623Z,33.02
2019-02-28T07:01:57.575Z,33.06
2019-02-28T07:04:26.793Z,32.86
2019-02-28T07:06:56.538Z,32.65
2019-02-28T07:09:26.214Z,31.99
2019-02-28T07:11:55.928Z,32.32
2019-02-28T07:14:25.653Z,32.28
2019-02-28T07:16:55.268Z,32.21
2019-02-28T07:19:26.238Z,32.14
2019-02-28T07:21:56.337Z,31.51
2019-02-28T07:24:26.493Z,31.17
2019-02-28T07:26:56.260Z,31.19
2019-02-28T07:29:25.983Z,31.46
2019-02-28T07:32:00.034Z,30.97
2019-02-28T07:34:27.040Z,30.88
2019-02-28T07:36:56.822Z,30.96
2019-02-28T07:39:26.550Z,30.91
2019-02-28T07:41:58.796Z,30.84
2019-02-28T07:44:27.702Z,30.82
2019-02-28T07:46:57.325Z,30.60
2019-02-28T07:49:27.065Z,30.43
2019-02-28T07:51:57.223Z,30.47
2019-02-28T07:54:27.883Z,30.17
2019-02-28T07:56:57.550Z,30.42
2019-02-28T07:59:27.189Z,30.54
2019-02-28T08:01:59.889Z,30.62
2019-02-28T08:04:28.461Z,31.12
2019-02-28T08:06:58.067Z,32.13
2019-02-28T08:09:29.731Z,33.68
2019-02-28T08:11:59.486Z,34.75
2019-02-28T08:14:29.259Z,34.25
2019-02-28T08:16:58.949Z,34.44
2019-02-28T08:19:28.664Z,34.39
2019-02-28T08:21:59.369Z,34.41
2019-02-28T08:24:29.016Z,34.28
2019-02-28T08:26:58.829Z,34.48
2019-02-28T08:29:28.571Z,34.17
2019-02-28T08:31:58.264Z,34.45
2019-02-28T08:34:27.978Z,34.85
2019-02-28T08:36:57.673Z,34.73
2019-02-28T08:39:27.450Z,34.73
2019-02-28T08:42:02.567Z,34.85
2019-02-28T08:44:29.568Z,34.66
2019-02-28T08:46:59.199Z,34.59
2019-02-28T08:49:29.008Z,34.59
2019-02-28T08:51:58.617Z,34.49
2019-02-28T08:54:28.325Z,34.48
2019-02-28T08:56:58.018Z,34.42
2019-02-28T08:59:27.729Z,34.28
2019-02-28T09:01:57.439Z,34.35
2019-02-28T09:04:27.075Z,34.20
2019-02-28T09:06:56.758Z,34.22
2019-02-28T09:09:26.386Z,34.19
2019-02-28T09:11:58.008Z,34.23
2019-02-28T09:14:27.446Z,34.16
2019-02-28T09:16:57.133Z,34.05
2019-02-28T09:19:26.772Z,34.01
2019-02-28T09:21:56.469Z,34.09
2019-02-28T09:24:26.167Z,34.07
2019-02-28T09:26:55.895Z,34.10
2019-02-28T09:29:25.614Z,33.93
2019-02-28T09:31:56.225Z,34.00
2019-02-28T09:34:26.130Z,34.07
2019-02-28T09:36:56.886Z,34.10
2019-02-28T09:39:26.500Z,34.05
2019-02-28T09:41:56.212Z,34.17
2019-02-28T09:44:26.044Z,34.14
2019-02-28T09:46:55.641Z,34.14
2019-02-28T09:49:25.360Z,33.92
2019-02-28T09:51:54.953Z,33.85
2019-02-28T09:54:25.530Z,33.89
2019-02-28T09:56:55.178Z,33.91
2019-02-28T09:59:24.835Z,33.84
2019-02-28T10:02:01.112Z,33.85
2019-02-28T10:04:27.361Z,33.79
2019-02-28T10:06:57.307Z,33.80
2019-02-28T10:09:26.927Z,33.71
2019-02-28T10:11:56.614Z,33.75
2019-02-28T10:14:28.818Z,33.91
2019-02-28T10:16:57.783Z,34.40
2019-02-28T10:19:27.410Z,35.02
2019-02-28T10:21:57.148Z,34.97
2019-02-28T10:24:28.389Z,34.80
2019-02-28T10:26:58.261Z,34.69
2019-02-28T10:29:27.872Z,35.02
2019-02-28T10:31:57.683Z,34.70
2019-02-28T10:34:27.510Z,34.65
2019-02-28T10:36:57.313Z,34.48
2019-02-28T10:39:27.172Z,34.20
2019-02-28T10:41:57.086Z,34.24
2019-02-28T10:44:30.345Z,34.61
2019-02-28T10:46:58.298Z,34.24
2019-02-28T10:49:27.936Z,34.87
2019-02-28T10:51:57.549Z,34.83
2019-02-28T10:54:27.139Z,35.04
2019-02-28T10:56:56.845Z,34.87
2019-02-28T10:59:26.546Z,34.93
2019-02-28T11:01:56.257Z,34.60
2019-02-28T11:04:27.524Z,34.84
2019-02-28T11:06:59.303Z,34.73
2019-02-28T11:09:28.665Z,28.03
2019-02-28T11:11:58.479Z,30.11
2019-02-28T11:14:28.210Z,33.88
2019-02-28T11:16:59.429Z,33.75
2019-02-28T11:19:29.285Z,33.45
2019-02-28T11:22:01.535Z,33.32
2019-02-28T11:24:30.425Z,33.24
2019-02-28T11:27:00.079Z,33.22
2019-02-28T11:29:29.746Z,33.17
2019-02-28T11:31:59.374Z,33.10
2019-02-28T11:34:29.059Z,33.11
2019-02-28T11:36:58.679Z,33.08
2019-02-28T11:39:30.530Z,33.10
2019-02-28T11:41:59.626Z,33.13
2019-02-28T11:44:29.337Z,33.10
2019-02-28T11:46:59.037Z,33.10
2019-02-28T11:49:29.456Z,33.19
2019-02-28T11:51:59.199Z,33.14
2019-02-28T11:54:28.889Z,33.13
2019-02-28T11:57:02.510Z,33.17
2019-02-28T11:59:29.953Z,33.11
2019-02-28T12:01:59.596Z,33.10
2019-02-28T12:04:29.274Z,33.07
2019-02-28T12:07:00.841Z,33.14
2019-02-28T12:09:30.331Z,33.14
2019-02-28T12:11:59.971Z,33.25
2019-02-28T12:14:30.143Z,33.31
2019-02-28T12:16:59.796Z,33.20
2019-02-28T12:19:29.477Z,32.29
2019-02-28T12:22:00.175Z,32.86
2019-02-28T12:24:32.386Z,33.02
2019-02-28T12:27:01.280Z,33.09
2019-02-28T12:29:30.718Z,32.97
2019-02-28T12:32:00.315Z,33.17
2019-02-28T12:34:30.070Z,32.99
2019-02-28T12:36:59.991Z,32.81
2019-02-28T12:39:29.736Z,32.72
2019-02-28T12:42:00.304Z,32.71
2019-02-28T12:44:30.133Z,32.71
2019-02-28T12:46:59.782Z,32.54
2019-02-28T12:49:29.413Z,32.56
2019-02-28T12:51:59.097Z,32.46
2019-02-28T12:54:30.397Z,32.43
2019-02-28T12:57:00.162Z,32.35
2019-02-28T12:59:29.802Z,32.25
2019-02-28T13:01:59.438Z,32.04
2019-02-28T13:04:29.245Z,32.00
2019-02-28T13:06:59.527Z,31.95
2019-02-28T13:09:30.244Z,31.83
2019-02-28T13:11:59.973Z,31.67
2019-02-28T13:14:29.606Z,31.81
2019-02-28T13:16:59.176Z,31.48
2019-02-28T13:19:28.831Z,31.46
2019-02-28T13:21:58.562Z,31.39
2019-02-28T13:24:28.270Z,31.52
2019-02-28T13:26:57.920Z,31.60
2019-02-28T13:29:28.820Z,31.37
2019-02-28T13:32:01.433Z,31.30
2019-02-28T13:34:30.361Z,31.29
2019-02-28T13:37:02.951Z,31.46
2019-02-28T13:39:32.742Z,31.34
2019-02-28T13:42:04.334Z,31.20
2019-02-28T13:44:36.329Z,31.27
2019-02-28T13:47:09.882Z,31.10
2019-02-28T13:49:38.963Z,31.04
2019-02-28T13:52:08.985Z,31.07
2019-02-28T13:54:42.196Z,30.99
2019-02-28T13:57:10.548Z,30.99
2019-02-28T13:59:40.688Z,30.91
2019-02-28T14:02:10.768Z,31.00
2019-02-28T14:04:40.761Z,30.92
2019-02-28T14:07:10.760Z,30.85
2019-02-28T14:09:40.821Z,30.91
2019-02-28T14:12:10.649Z,30.85
2019-02-28T14:14:42.351Z,30.90
2019-02-28T14:17:12.961Z,30.96
2019-02-28T14:19:43.079Z,30.91
2019-02-28T14:22:13.501Z,30.82
2019-02-28T14:24:43.180Z,30.83
2019-02-28T14:27:12.940Z,30.89
2019-02-28T14:29:48.062Z,30.80
2019-02-28T14:32:14.084Z,30.88
2019-02-28T14:34:43.774Z,30.80
2019-02-28T14:37:13.392Z,30.81
2019-02-28T14:39:43.553Z,30.83
2019-02-28T14:42:13.409Z,30.97
2019-02-28T14:44:43.246Z,31.13
2019-02-28T14:47:12.948Z,31.49
2019-02-28T14:49:43.853Z,31.50
2019-02-28T14:52:14.397Z,31.53
2019-02-28T14:54:44.121Z,31.63
2019-02-28T14:57:16.600Z,31.69
2019-02-28T14:59:45.413Z,31.69
2019-02-28T15:02:15.101Z,31.74
2019-02-28T15:04:45.783Z,31.72
2019-02-28T15:07:15.761Z,31.77
2019-02-28T15:09:45.747Z,31.82
2019-02-28T15:12:15.882Z,31.86
2019-02-28T15:14:45.728Z,31.91
2019-02-28T15:17:15.814Z,31.92
2019-02-28T15:19:45.716Z,31.92
2019-02-28T15:22:21.051Z,32.10
2019-02-28T15:24:50.271Z,32.05
2019-02-28T15:27:20.167Z,32.15
2019-02-28T15:29:49.996Z,32.22
2019-02-28T15:32:19.912Z,32.16
2019-02-28T15:34:49.738Z,32.21
2019-02-28T15:37:19.636Z,32.24
2019-02-28T15:39:50.042Z,32.21
2019-02-28T15:42:20.605Z,32.27
2019-02-28T15:44:50.450Z,32.67
2019-02-28T15:47:23.216Z,33.00
2019-02-28T15:49:52.150Z,32.72
2019-02-28T15:52:21.908Z,32.95
2019-02-28T15:54:51.817Z,32.81
2019-02-28T15:57:21.648Z,32.78
2019-02-28T15:59:51.525Z,32.78
2019-02-28T16:02:21.334Z,32.77
2019-02-28T16:04:51.166Z,32.83
2019-02-28T16:07:21.084Z,32.67
2019-02-28T16:09:51.046Z,32.50
2019-02-28T16:12:21.022Z,32.80
2019-02-28T16:14:50.880Z,30.70
2019-02-28T16:17:20.740Z,30.17
2019-02-28T16:19:53.216Z,31.56
2019-02-28T16:22:22.239Z,32.49
2019-02-28T16:24:52.141Z,32.92
2019-02-28T16:27:21.971Z,32.73
2019-02-28T16:29:52.332Z,33.15
2019-02-28T16:32:23.557Z,33.36
2019-02-28T16:34:53.355Z,33.49
2019-02-28T16:37:23.241Z,34.01
2019-02-28T16:39:52.985Z,34.06
2019-02-28T16:42:22.589Z,32.65
2019-02-28T16:44:52.397Z,29.92
2019-02-28T16:47:24.375Z,32.17
2019-02-28T16:49:53.774Z,33.00
2019-02-28T16:52:23.653Z,33.08
2019-02-28T16:54:56.249Z,33.10
2019-02-28T16:57:25.022Z,32.92
2019-02-28T16:59:54.831Z,32.99
2019-02-28T17:02:26.417Z,33.01
2019-02-28T17:04:56.307Z,32.99
2019-02-28T17:07:26.210Z,33.07
2019-02-28T17:09:56.019Z,33.03
2019-02-28T17:12:43.557Z,33.07
2019-02-28T17:15:23.220Z,33.14
2019-02-28T17:18:00.692Z,33.06
2019-02-28T17:20:30.501Z,33.09
2019-02-28T17:23:01.420Z,31.39
2019-02-28T17:25:31.890Z,33.06
2019-02-28T17:28:15.315Z,33.94
2019-02-28T17:31:08.344Z,33.71
2019-02-28T17:33:38.865Z,34.03
2019-02-28T17:36:11.729Z,34.15
2019-02-28T17:38:40.300Z,34.95
2019-02-28T17:41:11.123Z,36.27
2019-02-28T17:43:41.174Z,36.13
2019-02-28T17:46:12.260Z,36.00
2019-02-28T17:49:31.967Z,35.88
2019-02-28T17:52:12.354Z,35.73
2019-02-28T17:55:32.440Z,33.60
2019-02-28T17:58:13.927Z,34.82
2019-02-28T18:01:05.742Z,35.09
2019-02-28T18:04:24.041Z,35.31
2019-02-28T18:07:54.219Z,35.50
2019-02-28T18:11:06.617Z,35.25
2019-02-28T18:13:56.522Z,35.39
2019-02-28T18:16:36.286Z,35.97
2019-02-28T18:19:37.031Z,35.80
2019-02-28T18:23:03.023Z,35.98
2019-02-28T18:25:40.934Z,34.59
2019-02-28T18:28:41.563Z,35.12
2019-02-28T18:31:19.292Z,35.24
2019-02-28T18:34:11.194Z,35.23
2019-02-28T18:36:43.387Z,35.26
2019-02-28T18:39:12.486Z,35.27
2019-02-28T18:41:43.190Z,35.33
2019-02-28T18:44:13.113Z,35.69
2019-02-28T18:46:42.923Z,34.92
2019-02-28T18:49:12.743Z,34.87
2019-02-28T18:51:42.799Z,32.91
2019-02-28T18:54:12.604Z,33.29
2019-02-28T18:56:42.510Z,33.97
2019-02-28T18:59:12.394Z,34.08
2019-02-28T19:01:42.324Z,34.18
2019-02-28T19:04:12.282Z,34.20
2019-02-28T19:06:42.146Z,34.25
2019-02-28T19:09:22.617Z,34.23
2019-02-28T19:11:52.437Z,34.34
2019-02-28T19:14:22.286Z,34.39
2019-02-28T19:16:52.164Z,34.38
2019-02-28T19:19:22.074Z,34.50
2019-02-28T19:21:52.060Z,34.43
2019-02-28T19:24:21.922Z,34.64
2019-02-28T19:26:51.890Z,33.85
2019-02-28T19:29:21.851Z,34.26
2019-02-28T19:31:51.753Z,34.43
2019-02-28T19:34:21.570Z,34.45
2019-02-28T19:36:51.483Z,34.49
2019-02-28T19:39:21.229Z,34.26
2019-02-28T19:41:51.221Z,33.60
2019-02-28T19:44:21.056Z,33.69
2019-02-28T19:46:50.951Z,33.15
2019-02-28T19:49:20.778Z,33.91
2019-02-28T19:51:50.685Z,34.10
2019-02-28T19:54:20.622Z,34.05
2019-02-28T19:56:50.505Z,32.89
2019-02-28T19:59:20.236Z,32.91
2019-02-28T20:01:50.142Z,33.24
2019-02-28T20:04:19.978Z,32.64
2019-02-28T20:06:49.864Z,33.12
2019-02-28T20:09:19.726Z,33.56
2019-02-28T20:11:49.694Z,33.74
2019-02-28T20:14:19.598Z,33.97
2019-02-28T20:16:50.180Z,32.63
2019-02-28T20:19:20.066Z,31.93
2019-02-28T20:21:49.977Z,32.58
2019-02-28T20:24:19.807Z,33.09
2019-02-28T20:26:49.804Z,32.94
2019-02-28T20:29:19.641Z,32.17
2019-02-28T20:31:49.540Z,31.80
2019-02-28T20:34:19.433Z,32.24
2019-02-28T20:36:49.702Z,32.22
2019-02-28T20:39:19.508Z,32.13
2019-02-28T20:41:49.406Z,32.58
2019-02-28T20:44:19.352Z,30.86
2019-02-28T20:46:49.135Z,27.75
2019-02-28T20:49:19.049Z,28.99
2019-02-28T20:51:55.216Z,29.06
2019-02-28T20:54:20.447Z,30.20
2019-02-28T20:56:50.314Z,30.91
2019-02-28T20:59:20.062Z,30.84
2019-02-28T21:01:49.842Z,31.51
2019-02-28T21:04:19.588Z,30.83
2019-02-28T21:06:49.478Z,29.75
2019-02-28T21:09:20.111Z,29.35
2019-02-28T21:11:49.930Z,30.18
2019-02-28T21:14:19.706Z,30.74
2019-02-28T21:16:49.636Z,30.94
2019-02-28T21:19:19.458Z,30.96
2019-02-28T21:21:49.427Z,31.05
2019-02-28T21:24:19.196Z,31.12
2019-02-28T21:26:49.246Z,31.34
2019-02-28T21:29:19.290Z,31.46
2019-02-28T21:31:49.145Z,31.52
2019-02-28T21:34:19.170Z,31.69
2019-02-28T21:36:49.270Z,31.83
2019-02-28T21:39:19.093Z,31.90
2019-02-28T21:41:49.016Z,32.08
2019-02-28T21:44:18.832Z,32.10
2019-02-28T21:46:48.844Z,32.09
2019-02-28T21:49:18.562Z,31.59
2019-02-28T21:51:48.373Z,30.47
2019-02-28T21:54:18.172Z,30.15
2019-02-28T21:56:47.988Z,30.31
2019-02-28T21:59:17.713Z,30.20
2019-02-28T22:01:47.610Z,30.41
2019-02-28T22:04:17.450Z,30.54
2019-02-28T22:06:47.356Z,30.65
2019-02-28T22:09:17.251Z,30.66
2019-02-28T22:11:47.004Z,30.73
2019-02-28T22:14:16.876Z,30.76
2019-02-28T22:16:46.641Z,30.83
2019-02-28T22:19:16.510Z,30.84
2019-02-28T22:21:46.352Z,30.91
2019-02-28T22:24:16.249Z,30.97
2019-02-28T22:26:46.250Z,30.97
2019-02-28T22:29:16.075Z,31.08
2019-02-28T22:32:03.619Z,31.07
2019-02-28T22:34:40.883Z,31.17
2019-02-28T22:37:10.750Z,31.18
2019-02-28T22:39:40.618Z,31.25
2019-02-28T22:42:21.414Z,31.19
2019-02-28T22:44:41.920Z,31.28
2019-02-28T22:47:11.819Z,31.32
2019-02-28T22:49:41.730Z,31.38
2019-02-28T22:52:11.621Z,31.39
2019-02-28T22:54:41.592Z,31.38
2019-02-28T22:57:11.456Z,31.40
2019-02-28T22:59:41.208Z,31.40
2019-02-28T23:02:11.096Z,31.34
2019-02-28T23:04:40.821Z,31.50
2019-02-28T23:07:10.728Z,31.38
2019-02-28T23:09:40.563Z,31.34
2019-02-28T23:12:10.458Z,31.54
2019-02-28T23:14:40.468Z,31.49
2019-02-28T23:19:38.822Z,31.49
2019-02-28T23:22:08.587Z,31.46
2019-02-28T23:24:38.488Z,31.46
2019-02-28T23:27:20.796Z,31.36
2019-02-28T23:30:14.276Z,31.46
2019-02-28T23:32:54.284Z,31.48
2019-02-28T23:35:28.840Z,31.54
2019-02-28T23:37:58.658Z,31.45
2019-02-28T23:40:28.560Z,31.44
2019-02-28T23:42:58.377Z,31.55
2019-02-28T23:45:28.212Z,31.57
2019-02-28T23:47:58.022Z,31.60
2019-02-28T23:50:27.937Z,31.55
2019-02-28T23:52:57.752Z,31.54
2019-02-28T23:55:27.670Z,31.61
2019-02-28T23:57:57.497Z,31.59
